sensor_id;sensor_type;location;lat;lon;timestamp;temperature;humidity
6174;DHT22;3120;48.796;9.796;2022-07-25T00:00:08;20.30;95.20
6174;DHT22;3120;48.796;9.796;2022-07-25T00:02:35;20.30;99.10
6174;DHT22;3120;48.796;9.796;2022-07-25T00:05:01;20.20;99.90
6174;DHT22;3120;48.796;9.796;2022-07-25T00:07:27;20.30;99.90
6174;DHT22;3120;48.796;9.796;2022-07-25T00:09:52;20.20;99.90
6174;DHT22;3120;48.796;9.796;2022-07-25T00:12:19;20.20;99.90
6174;DHT22;3120;48.796;9.796;2022-07-25T00:14:44;20.10;99.90
6174;DHT22;3120;48.796;9.796;2022-07-25T00:17:10;20.20;58.70
6174;DHT22;3120;48.796;9.796;2022-07-25T00:19:36;20.30;26.80
6174;DHT22;3120;48.796;9.796;2022-07-25T00:22:01;20.40;24.00
6174;DHT22;3120;48.796;9.796;2022-07-25T00:24:27;20.30;27.50
6174;DHT22;3120;48.796;9.796;2022-07-25T00:26:53;20.30;31.40
6174;DHT22;3120;48.796;9.796;2022-07-25T00:29:19;20.30;6.50
6174;DHT22;3120;48.796;9.796;2022-07-25T00:31:44;20.30;4.10
6174;DHT22;3120;48.796;9.796;2022-07-25T00:34:10;20.30;2.30
6174;DHT22;3120;48.796;9.796;2022-07-25T00:36:35;20.30;8.70
6174;DHT22;3120;48.796;9.796;2022-07-25T00:39:02;20.30;9.50
6174;DHT22;3120;48.796;9.796;2022-07-25T00:41:27;20.30;1.00
6174;DHT22;3120;48.796;9.796;2022-07-25T00:43:53;20.30;1.00
6174;DHT22;3120;48.796;9.796;2022-07-25T00:46:18;20.20;1.00
6174;DHT22;3120;48.796;9.796;2022-07-25T00:48:44;20.20;8.20
6174;DHT22;3120;48.796;9.796;2022-07-25T00:51:10;20.20;42.00
6174;DHT22;3120;48.796;9.796;2022-07-25T00:53:39;20.20;44.70
6174;DHT22;3120;48.796;9.796;2022-07-25T00:56:05;20.20;61.20
6174;DHT22;3120;48.796;9.796;2022-07-25T00:58:32;20.10;99.90
6174;DHT22;3120;48.796;9.796;2022-07-25T01:00:58;20.00;98.70
6174;DHT22;3120;48.796;9.796;2022-07-25T01:03:24;20.00;99.90
6174;DHT22;3120;48.796;9.796;2022-07-25T01:05:50;19.90;99.90
6174;DHT22;3120;48.796;9.796;2022-07-25T01:08:17;19.90;99.90
6174;DHT22;3120;48.796;9.796;2022-07-25T01:10:44;19.80;99.90
6174;DHT22;3120;48.796;9.796;2022-07-25T01:13:09;19.80;99.90
6174;DHT22;3120;48.796;9.796;2022-07-25T01:15:35;19.80;99.90
6174;DHT22;3120;48.796;9.796;2022-07-25T01:18:01;19.70;99.90
6174;DHT22;3120;48.796;9.796;2022-07-25T01:20:28;19.70;99.90
6174;DHT22;3120;48.796;9.796;2022-07-25T01:22:54;19.60;99.90
6174;DHT22;3120;48.796;9.796;2022-07-25T01:25:20;19.60;99.90
6174;DHT22;3120;48.796;9.796;2022-07-25T01:27:47;19.70;99.90
6174;DHT22;3120;48.796;9.796;2022-07-25T01:30:14;19.70;99.90
6174;DHT22;3120;48.796;9.796;2022-07-25T01:32:41;19.60;99.90
6174;DHT22;3120;48.796;9.796;2022-07-25T01:35:07;19.60;99.90
6174;DHT22;3120;48.796;9.796;2022-07-25T01:37:34;19.60;99.90
6174;DHT22;3120;48.796;9.796;2022-07-25T01:40:00;19.60;99.90
6174;DHT22;3120;48.796;9.796;2022-07-25T01:42:25;19.50;99.90
6174;DHT22;3120;48.796;9.796;2022-07-25T01:44:52;19.50;99.90
6174;DHT22;3120;48.796;9.796;2022-07-25T01:47:17;19.40;99.90
6174;DHT22;3120;48.796;9.796;2022-07-25T01:49:43;19.50;99.90
6174;DHT22;3120;48.796;9.796;2022-07-25T01:52:10;19.40;99.90
6174;DHT22;3120;48.796;9.796;2022-07-25T01:54:36;19.40;99.90
6174;DHT22;3120;48.796;9.796;2022-07-25T01:57:01;19.40;99.90
6174;DHT22;3120;48.796;9.796;2022-07-25T01:59:28;19.30;99.90
6174;DHT22;3120;48.796;9.796;2022-07-25T02:01:53;19.30;99.90
6174;DHT22;3120;48.796;9.796;2022-07-25T02:04:19;19.30;99.90
6174;DHT22;3120;48.796;9.796;2022-07-25T02:06:44;19.30;99.90
6174;DHT22;3120;48.796;9.796;2022-07-25T02:09:10;19.40;99.90
6174;DHT22;3120;48.796;9.796;2022-07-25T02:11:36;19.40;99.90
6174;DHT22;3120;48.796;9.796;2022-07-25T02:14:02;19.30;99.90
6174;DHT22;3120;48.796;9.796;2022-07-25T02:16:28;19.30;99.90
6174;DHT22;3120;48.796;9.796;2022-07-25T02:18:54;19.30;99.90
6174;DHT22;3120;48.796;9.796;2022-07-25T02:21:20;19.30;99.90
6174;DHT22;3120;48.796;9.796;2022-07-25T02:23:46;19.30;99.90
6174;DHT22;3120;48.796;9.796;2022-07-25T02:26:12;19.30;99.90
6174;DHT22;3120;48.796;9.796;2022-07-25T02:28:38;19.30;99.90
6174;DHT22;3120;48.796;9.796;2022-07-25T02:31:04;19.40;99.90
6174;DHT22;3120;48.796;9.796;2022-07-25T02:35:57;19.30;99.90
6174;DHT22;3120;48.796;9.796;2022-07-25T02:38:23;19.30;99.90
6174;DHT22;3120;48.796;9.796;2022-07-25T02:40:49;19.30;99.90
6174;DHT22;3120;48.796;9.796;2022-07-25T02:43:16;19.30;99.90
6174;DHT22;3120;48.796;9.796;2022-07-25T02:45:42;19.30;99.90
6174;DHT22;3120;48.796;9.796;2022-07-25T02:48:08;19.30;99.90
6174;DHT22;3120;48.796;9.796;2022-07-25T02:50:36;19.30;99.90
6174;DHT22;3120;48.796;9.796;2022-07-25T02:53:02;19.30;99.90
6174;DHT22;3120;48.796;9.796;2022-07-25T02:55:27;19.30;99.90
6174;DHT22;3120;48.796;9.796;2022-07-25T02:57:53;19.30;99.90
6174;DHT22;3120;48.796;9.796;2022-07-25T03:00:19;19.30;99.90
6174;DHT22;3120;48.796;9.796;2022-07-25T03:02:44;19.30;99.90
6174;DHT22;3120;48.796;9.796;2022-07-25T03:05:11;19.30;99.90
6174;DHT22;3120;48.796;9.796;2022-07-25T03:07:39;19.30;99.90
6174;DHT22;3120;48.796;9.796;2022-07-25T03:10:06;19.30;99.90
6174;DHT22;3120;48.796;9.796;2022-07-25T03:12:32;19.20;99.90
6174;DHT22;3120;48.796;9.796;2022-07-25T03:14:59;19.20;99.90
6174;DHT22;3120;48.796;9.796;2022-07-25T03:17:25;19.30;99.90
6174;DHT22;3120;48.796;9.796;2022-07-25T03:19:50;19.20;99.90
6174;DHT22;3120;48.796;9.796;2022-07-25T03:22:16;19.20;99.90
6174;DHT22;3120;48.796;9.796;2022-07-25T03:24:42;19.20;99.90
6174;DHT22;3120;48.796;9.796;2022-07-25T03:27:08;19.10;99.90
6174;DHT22;3120;48.796;9.796;2022-07-25T03:29:34;19.20;99.90
6174;DHT22;3120;48.796;9.796;2022-07-25T03:32:00;19.20;99.90
6174;DHT22;3120;48.796;9.796;2022-07-25T03:34:25;19.10;99.90
6174;DHT22;3120;48.796;9.796;2022-07-25T03:36:51;19.20;99.90
6174;DHT22;3120;48.796;9.796;2022-07-25T03:39:16;19.20;99.90
6174;DHT22;3120;48.796;9.796;2022-07-25T03:41:42;19.10;99.90
6174;DHT22;3120;48.796;9.796;2022-07-25T03:44:08;19.10;99.90
6174;DHT22;3120;48.796;9.796;2022-07-25T03:46:34;19.10;99.90
6174;DHT22;3120;48.796;9.796;2022-07-25T03:48:59;19.10;99.90
6174;DHT22;3120;48.796;9.796;2022-07-25T03:51:25;19.10;99.90
6174;DHT22;3120;48.796;9.796;2022-07-25T03:53:50;19.10;99.90
6174;DHT22;3120;48.796;9.796;2022-07-25T03:56:35;19.00;99.90
6174;DHT22;3120;48.796;9.796;2022-07-25T03:59:01;19.00;99.90
6174;DHT22;3120;48.796;9.796;2022-07-25T04:01:27;19.10;99.90
6174;DHT22;3120;48.796;9.796;2022-07-25T04:03:53;19.20;99.90
6174;DHT22;3120;48.796;9.796;2022-07-25T04:06:18;19.20;99.90
6174;DHT22;3120;48.796;9.796;2022-07-25T04:08:44;19.20;99.90
6174;DHT22;3120;48.796;9.796;2022-07-25T04:11:10;19.20;99.90
6174;DHT22;3120;48.796;9.796;2022-07-25T04:13:35;19.20;99.90
6174;DHT22;3120;48.796;9.796;2022-07-25T04:16:01;19.10;99.90
6174;DHT22;3120;48.796;9.796;2022-07-25T04:18:27;19.10;99.90
6174;DHT22;3120;48.796;9.796;2022-07-25T04:20:52;19.10;99.90
6174;DHT22;3120;48.796;9.796;2022-07-25T04:23:18;19.20;99.90
6174;DHT22;3120;48.796;9.796;2022-07-25T04:25:43;19.20;99.90
6174;DHT22;3120;48.796;9.796;2022-07-25T04:28:09;19.20;99.90
6174;DHT22;3120;48.796;9.796;2022-07-25T04:30:35;19.20;99.90
6174;DHT22;3120;48.796;9.796;2022-07-25T04:33:00;19.20;99.90
6174;DHT22;3120;48.796;9.796;2022-07-25T04:35:26;19.30;99.90
6174;DHT22;3120;48.796;9.796;2022-07-25T04:37:51;19.30;99.90
6174;DHT22;3120;48.796;9.796;2022-07-25T04:40:17;19.30;99.90
6174;DHT22;3120;48.796;9.796;2022-07-25T04:42:43;19.30;99.90
6174;DHT22;3120;48.796;9.796;2022-07-25T04:45:09;19.40;99.90
6174;DHT22;3120;48.796;9.796;2022-07-25T04:47:34;19.40;99.90
6174;DHT22;3120;48.796;9.796;2022-07-25T04:50:00;19.60;99.90
6174;DHT22;3120;48.796;9.796;2022-07-25T04:52:26;19.60;99.90
6174;DHT22;3120;48.796;9.796;2022-07-25T04:54:51;19.70;99.90
6174;DHT22;3120;48.796;9.796;2022-07-25T04:57:17;19.80;99.90
6174;DHT22;3120;48.796;9.796;2022-07-25T04:59:42;19.80;99.90
6174;DHT22;3120;48.796;9.796;2022-07-25T05:02:09;19.90;99.90
6174;DHT22;3120;48.796;9.796;2022-07-25T05:04:34;20.00;90.30
6174;DHT22;3120;48.796;9.796;2022-07-25T05:07:00;20.10;82.50
6174;DHT22;3120;48.796;9.796;2022-07-25T05:09:25;20.40;55.30
6174;DHT22;3120;48.796;9.796;2022-07-25T05:11:52;20.70;22.50
6174;DHT22;3120;48.796;9.796;2022-07-25T05:14:18;21.00;1.00
6174;DHT22;3120;48.796;9.796;2022-07-25T05:16:43;21.20;1.00
6174;DHT22;3120;48.796;9.796;2022-07-25T05:19:09;21.30;1.00
6174;DHT22;3120;48.796;9.796;2022-07-25T05:21:35;21.50;1.00
6174;DHT22;3120;48.796;9.796;2022-07-25T05:24:00;21.70;1.00
6174;DHT22;3120;48.796;9.796;2022-07-25T05:26:26;21.80;1.00
6174;DHT22;3120;48.796;9.796;2022-07-25T05:28:51;22.20;1.00
6174;DHT22;3120;48.796;9.796;2022-07-25T05:31:17;22.70;99.90
6174;DHT22;3120;48.796;9.796;2022-07-25T05:33:42;23.30;1.00
6174;DHT22;3120;48.796;9.796;2022-07-25T05:36:08;23.90;1.00
6174;DHT22;3120;48.796;9.796;2022-07-25T05:38:34;24.30;99.90
6174;DHT22;3120;48.796;9.796;2022-07-25T05:40:59;24.40;1.00
6174;DHT22;3120;48.796;9.796;2022-07-25T05:43:25;24.30;1.00
6174;DHT22;3120;48.796;9.796;2022-07-25T05:45:51;24.10;99.90
6174;DHT22;3120;48.796;9.796;2022-07-25T05:48:16;24.00;99.90
6174;DHT22;3120;48.796;9.796;2022-07-25T05:50:42;23.80;99.90
6174;DHT22;3120;48.796;9.796;2022-07-25T05:53:08;23.80;1.00
6174;DHT22;3120;48.796;9.796;2022-07-25T05:55:33;23.70;99.90
6174;DHT22;3120;48.796;9.796;2022-07-25T05:57:59;23.60;50.30
6174;DHT22;3120;48.796;9.796;2022-07-25T06:00:25;23.80;1.00
6174;DHT22;3120;48.796;9.796;2022-07-25T06:02:50;24.00;99.90
6174;DHT22;3120;48.796;9.796;2022-07-25T06:05:16;24.10;99.90
6174;DHT22;3120;48.796;9.796;2022-07-25T06:07:41;24.00;1.00
6174;DHT22;3120;48.796;9.796;2022-07-25T06:10:07;23.90;1.00
6174;DHT22;3120;48.796;9.796;2022-07-25T06:12:33;23.80;1.00
6174;DHT22;3120;48.796;9.796;2022-07-25T06:14:59;23.90;12.50
6174;DHT22;3120;48.796;9.796;2022-07-25T06:17:25;24.00;99.90
6174;DHT22;3120;48.796;9.796;2022-07-25T06:19:51;24.10;99.90
6174;DHT22;3120;48.796;9.796;2022-07-25T06:22:16;24.30;99.90
6174;DHT22;3120;48.796;9.796;2022-07-25T06:24:44;25.00;99.90
6174;DHT22;3120;48.796;9.796;2022-07-25T06:27:10;26.10;1.00
6174;DHT22;3120;48.796;9.796;2022-07-25T06:29:36;27.60;1.00
6174;DHT22;3120;48.796;9.796;2022-07-25T06:32:02;28.50;99.90
6174;DHT22;3120;48.796;9.796;2022-07-25T06:34:28;29.20;67.20
6174;DHT22;3120;48.796;9.796;2022-07-25T06:36:54;29.60;1.00
6174;DHT22;3120;48.796;9.796;2022-07-25T06:39:21;29.70;1.00
6174;DHT22;3120;48.796;9.796;2022-07-25T06:41:47;29.50;1.00
6174;DHT22;3120;48.796;9.796;2022-07-25T06:44:13;29.20;59.60
6174;DHT22;3120;48.796;9.796;2022-07-25T06:46:39;28.70;99.90
6174;DHT22;3120;48.796;9.796;2022-07-25T06:49:04;28.30;99.90
6174;DHT22;3120;48.796;9.796;2022-07-25T06:51:30;28.00;99.90
6174;DHT22;3120;48.796;9.796;2022-07-25T06:53:56;27.70;99.90
6174;DHT22;3120;48.796;9.796;2022-07-25T06:56:21;27.80;99.90
6174;DHT22;3120;48.796;9.796;2022-07-25T06:58:47;28.00;99.90
6174;DHT22;3120;48.796;9.796;2022-07-25T07:01:13;28.60;84.10
6174;DHT22;3120;48.796;9.796;2022-07-25T07:03:39;28.90;99.90
6174;DHT22;3120;48.796;9.796;2022-07-25T07:06:06;29.20;99.90
6174;DHT22;3120;48.796;9.796;2022-07-25T07:08:32;30.40;1.00
6174;DHT22;3120;48.796;9.796;2022-07-25T07:10:58;31.50;1.00
6174;DHT22;3120;48.796;9.796;2022-07-25T07:13:23;32.40;1.00
6174;DHT22;3120;48.796;9.796;2022-07-25T07:15:50;33.30;1.00
6174;DHT22;3120;48.796;9.796;2022-07-25T07:18:17;34.00;1.00
6174;DHT22;3120;48.796;9.796;2022-07-25T07:20:43;34.90;1.00
6174;DHT22;3120;48.796;9.796;2022-07-25T07:23:09;35.50;1.00
6174;DHT22;3120;48.796;9.796;2022-07-25T07:25:34;35.80;1.00
6174;DHT22;3120;48.796;9.796;2022-07-25T07:28:00;36.00;1.00
6174;DHT22;3120;48.796;9.796;2022-07-25T07:30:26;36.00;1.00
6174;DHT22;3120;48.796;9.796;2022-07-25T07:32:52;36.10;1.00
6174;DHT22;3120;48.796;9.796;2022-07-25T07:35:17;36.30;1.00
6174;DHT22;3120;48.796;9.796;2022-07-25T07:37:44;36.40;1.00
6174;DHT22;3120;48.796;9.796;2022-07-25T07:40:12;36.90;1.00
6174;DHT22;3120;48.796;9.796;2022-07-25T07:42:44;36.90;1.00
6174;DHT22;3120;48.796;9.796;2022-07-25T07:45:21;37.20;1.00
6174;DHT22;3120;48.796;9.796;2022-07-25T07:47:48;37.20;1.00
6174;DHT22;3120;48.796;9.796;2022-07-25T07:50:20;37.20;1.00
6174;DHT22;3120;48.796;9.796;2022-07-25T07:52:47;36.80;1.00
6174;DHT22;3120;48.796;9.796;2022-07-25T07:55:13;36.50;1.00
6174;DHT22;3120;48.796;9.796;2022-07-25T07:57:57;36.40;1.00
6174;DHT22;3120;48.796;9.796;2022-07-25T08:00:24;36.60;1.00
6174;DHT22;3120;48.796;9.796;2022-07-25T08:02:53;36.90;1.00
6174;DHT22;3120;48.796;9.796;2022-07-25T08:05:33;37.10;1.00
6174;DHT22;3120;48.796;9.796;2022-07-25T08:07:59;37.00;1.00
6174;DHT22;3120;48.796;9.796;2022-07-25T08:10:27;36.60;1.00
6174;DHT22;3120;48.796;9.796;2022-07-25T08:12:54;36.30;1.00
6174;DHT22;3120;48.796;9.796;2022-07-25T08:15:20;36.40;1.00
6174;DHT22;3120;48.796;9.796;2022-07-25T08:17:47;35.80;1.00
6174;DHT22;3120;48.796;9.796;2022-07-25T08:20:14;35.60;1.00
6174;DHT22;3120;48.796;9.796;2022-07-25T08:22:42;35.90;1.00
6174;DHT22;3120;48.796;9.796;2022-07-25T08:25:11;35.90;1.00
6174;DHT22;3120;48.796;9.796;2022-07-25T08:27:37;35.30;1.00
6174;DHT22;3120;48.796;9.796;2022-07-25T08:30:07;35.30;1.00
6174;DHT22;3120;48.796;9.796;2022-07-25T08:32:33;35.60;1.00
6174;DHT22;3120;48.796;9.796;2022-07-25T08:34:59;35.80;1.00
6174;DHT22;3120;48.796;9.796;2022-07-25T08:37:27;35.60;1.00
6174;DHT22;3120;48.796;9.796;2022-07-25T08:39:52;35.50;1.00
6174;DHT22;3120;48.796;9.796;2022-07-25T08:42:19;35.00;1.00
6174;DHT22;3120;48.796;9.796;2022-07-25T08:44:54;34.80;1.00
6174;DHT22;3120;48.796;9.796;2022-07-25T08:47:24;34.70;1.00
6174;DHT22;3120;48.796;9.796;2022-07-25T08:49:50;34.60;1.00
6174;DHT22;3120;48.796;9.796;2022-07-25T08:52:17;34.80;1.00
6174;DHT22;3120;48.796;9.796;2022-07-25T08:54:45;34.90;1.00
6174;DHT22;3120;48.796;9.796;2022-07-25T08:57:12;34.80;1.00
6174;DHT22;3120;48.796;9.796;2022-07-25T08:59:38;34.50;1.00
6174;DHT22;3120;48.796;9.796;2022-07-25T09:02:03;34.30;1.00
6174;DHT22;3120;48.796;9.796;2022-07-25T09:04:33;34.00;1.00
6174;DHT22;3120;48.796;9.796;2022-07-25T09:07:00;33.90;1.00
6174;DHT22;3120;48.796;9.796;2022-07-25T09:09:31;34.10;1.00
6174;DHT22;3120;48.796;9.796;2022-07-25T09:11:56;34.20;1.00
6174;DHT22;3120;48.796;9.796;2022-07-25T09:14:22;34.10;1.00
6174;DHT22;3120;48.796;9.796;2022-07-25T09:16:48;34.00;1.00
6174;DHT22;3120;48.796;9.796;2022-07-25T09:19:19;34.20;1.00
6174;DHT22;3120;48.796;9.796;2022-07-25T09:21:59;34.30;1.00
6174;DHT22;3120;48.796;9.796;2022-07-25T09:24:25;34.10;1.00
6174;DHT22;3120;48.796;9.796;2022-07-25T09:26:54;33.80;1.00
6174;DHT22;3120;48.796;9.796;2022-07-25T09:29:25;33.70;1.00
6174;DHT22;3120;48.796;9.796;2022-07-25T09:31:52;33.90;1.00
6174;DHT22;3120;48.796;9.796;2022-07-25T09:34:48;33.60;1.00
6174;DHT22;3120;48.796;9.796;2022-07-25T09:37:17;33.60;1.00
6174;DHT22;3120;48.796;9.796;2022-07-25T09:39:47;33.80;1.00
6174;DHT22;3120;48.796;9.796;2022-07-25T09:45:08;34.20;1.00
6174;DHT22;3120;48.796;9.796;2022-07-25T09:47:58;33.90;1.00
6174;DHT22;3120;48.796;9.796;2022-07-25T09:50:24;34.00;1.00
6174;DHT22;3120;48.796;9.796;2022-07-25T09:52:51;34.20;1.00
6174;DHT22;3120;48.796;9.796;2022-07-25T09:55:18;34.50;1.00
6174;DHT22;3120;48.796;9.796;2022-07-25T09:57:45;34.50;1.00
6174;DHT22;3120;48.796;9.796;2022-07-25T10:00:12;34.60;1.00
6174;DHT22;3120;48.796;9.796;2022-07-25T10:07:56;34.30;1.00
6174;DHT22;3120;48.796;9.796;2022-07-25T10:10:31;34.10;1.00
6174;DHT22;3120;48.796;9.796;2022-07-25T10:13:05;34.00;1.00
6174;DHT22;3120;48.796;9.796;2022-07-25T10:15:50;33.70;1.00
6174;DHT22;3120;48.796;9.796;2022-07-25T10:18:20;33.80;1.00
6174;DHT22;3120;48.796;9.796;2022-07-25T10:20:51;33.90;1.00
6174;DHT22;3120;48.796;9.796;2022-07-25T10:25:43;33.90;1.00
6174;DHT22;3120;48.796;9.796;2022-07-25T10:28:09;34.00;1.00
6174;DHT22;3120;48.796;9.796;2022-07-25T10:30:38;34.30;1.00
6174;DHT22;3120;48.796;9.796;2022-07-25T10:33:13;34.30;1.00
6174;DHT22;3120;48.796;9.796;2022-07-25T10:35:40;34.40;1.00
6174;DHT22;3120;48.796;9.796;2022-07-25T10:38:06;34.40;1.00
6174;DHT22;3120;48.796;9.796;2022-07-25T10:40:36;34.30;1.00
6174;DHT22;3120;48.796;9.796;2022-07-25T10:43:06;34.20;1.00
6174;DHT22;3120;48.796;9.796;2022-07-25T10:45:40;34.00;1.00
6174;DHT22;3120;48.796;9.796;2022-07-25T10:48:07;34.30;1.00
6174;DHT22;3120;48.796;9.796;2022-07-25T10:50:33;34.50;1.00
6174;DHT22;3120;48.796;9.796;2022-07-25T10:52:59;34.60;1.00
6174;DHT22;3120;48.796;9.796;2022-07-25T10:55:27;34.70;1.00
6174;DHT22;3120;48.796;9.796;2022-07-25T10:58:03;34.80;1.00
6174;DHT22;3120;48.796;9.796;2022-07-25T11:00:33;34.90;1.00
6174;DHT22;3120;48.796;9.796;2022-07-25T11:03:06;34.90;1.00
6174;DHT22;3120;48.796;9.796;2022-07-25T11:05:43;34.70;1.00
6174;DHT22;3120;48.796;9.796;2022-07-25T11:08:08;34.70;1.00
6174;DHT22;3120;48.796;9.796;2022-07-25T11:10:34;34.80;1.00
6174;DHT22;3120;48.796;9.796;2022-07-25T11:13:00;35.00;1.00
6174;DHT22;3120;48.796;9.796;2022-07-25T11:15:26;34.80;1.00
6174;DHT22;3120;48.796;9.796;2022-07-25T11:17:52;34.80;1.00
6174;DHT22;3120;48.796;9.796;2022-07-25T11:20:18;34.80;1.00
6174;DHT22;3120;48.796;9.796;2022-07-25T11:22:54;34.80;1.00
6174;DHT22;3120;48.796;9.796;2022-07-25T11:25:21;34.80;1.00
6174;DHT22;3120;48.796;9.796;2022-07-25T11:27:58;34.70;1.00
6174;DHT22;3120;48.796;9.796;2022-07-25T11:30:25;34.40;1.00
6174;DHT22;3120;48.796;9.796;2022-07-25T11:32:55;34.30;1.00
6174;DHT22;3120;48.796;9.796;2022-07-25T11:35:26;34.40;1.00
6174;DHT22;3120;48.796;9.796;2022-07-25T11:37:53;34.40;1.00
6174;DHT22;3120;48.796;9.796;2022-07-25T11:40:20;34.40;1.00
6174;DHT22;3120;48.796;9.796;2022-07-25T11:42:49;34.50;1.00
6174;DHT22;3120;48.796;9.796;2022-07-25T11:45:29;34.70;1.00
6174;DHT22;3120;48.796;9.796;2022-07-25T11:48:07;34.60;1.00
6174;DHT22;3120;48.796;9.796;2022-07-25T11:50:35;34.30;1.00
6174;DHT22;3120;48.796;9.796;2022-07-25T11:53:05;34.10;1.00
6174;DHT22;3120;48.796;9.796;2022-07-25T11:55:33;34.20;1.00
6174;DHT22;3120;48.796;9.796;2022-07-25T11:58:02;34.20;1.00
6174;DHT22;3120;48.796;9.796;2022-07-25T12:00:29;34.20;1.00
6174;DHT22;3120;48.796;9.796;2022-07-25T12:03:08;34.20;1.00
6174;DHT22;3120;48.796;9.796;2022-07-25T12:05:35;34.40;1.00
6174;DHT22;3120;48.796;9.796;2022-07-25T12:08:12;34.50;1.00
6174;DHT22;3120;48.796;9.796;2022-07-25T12:10:39;34.50;1.00
6174;DHT22;3120;48.796;9.796;2022-07-25T12:13:06;34.50;1.00
6174;DHT22;3120;48.796;9.796;2022-07-25T12:15:38;34.60;1.00
6174;DHT22;3120;48.796;9.796;2022-07-25T12:18:05;34.70;1.00
6174;DHT22;3120;48.796;9.796;2022-07-25T12:20:35;34.70;1.00
6174;DHT22;3120;48.796;9.796;2022-07-25T12:23:08;34.70;1.00
6174;DHT22;3120;48.796;9.796;2022-07-25T12:25:43;34.70;1.00
6174;DHT22;3120;48.796;9.796;2022-07-25T12:28:09;34.60;1.00
6174;DHT22;3120;48.796;9.796;2022-07-25T12:30:36;34.50;1.00
6174;DHT22;3120;48.796;9.796;2022-07-25T12:33:03;34.50;1.00
6174;DHT22;3120;48.796;9.796;2022-07-25T12:35:29;34.50;1.00
6174;DHT22;3120;48.796;9.796;2022-07-25T12:37:54;34.60;1.00
6174;DHT22;3120;48.796;9.796;2022-07-25T12:40:20;34.70;1.00
6174;DHT22;3120;48.796;9.796;2022-07-25T12:42:47;34.70;1.00
6174;DHT22;3120;48.796;9.796;2022-07-25T12:45:14;34.90;1.00
6174;DHT22;3120;48.796;9.796;2022-07-25T12:47:45;35.00;1.00
6174;DHT22;3120;48.796;9.796;2022-07-25T12:50:11;34.90;1.00
6174;DHT22;3120;48.796;9.796;2022-07-25T12:52:38;34.90;1.00
6174;DHT22;3120;48.796;9.796;2022-07-25T12:55:06;34.90;1.00
6174;DHT22;3120;48.796;9.796;2022-07-25T12:57:31;34.80;1.00
6174;DHT22;3120;48.796;9.796;2022-07-25T12:59:57;34.80;1.00
6174;DHT22;3120;48.796;9.796;2022-07-25T13:02:23;34.70;1.00
6174;DHT22;3120;48.796;9.796;2022-07-25T13:04:48;34.90;1.00
6174;DHT22;3120;48.796;9.796;2022-07-25T13:07:14;35.00;1.00
6174;DHT22;3120;48.796;9.796;2022-07-25T13:09:40;35.10;1.00
6174;DHT22;3120;48.796;9.796;2022-07-25T13:12:06;35.30;1.00
6174;DHT22;3120;48.796;9.796;2022-07-25T13:14:32;35.30;1.00
6174;DHT22;3120;48.796;9.796;2022-07-25T13:16:58;35.30;1.00
6174;DHT22;3120;48.796;9.796;2022-07-25T13:19:23;35.50;1.00
6174;DHT22;3120;48.796;9.796;2022-07-25T13:21:49;35.60;1.00
6174;DHT22;3120;48.796;9.796;2022-07-25T13:24:15;35.70;1.00
6174;DHT22;3120;48.796;9.796;2022-07-25T13:26:40;35.60;1.00
6174;DHT22;3120;48.796;9.796;2022-07-25T13:29:06;35.60;1.00
6174;DHT22;3120;48.796;9.796;2022-07-25T13:31:33;35.60;1.00
6174;DHT22;3120;48.796;9.796;2022-07-25T13:33:59;35.70;1.00
6174;DHT22;3120;48.796;9.796;2022-07-25T13:36:25;35.70;1.00
6174;DHT22;3120;48.796;9.796;2022-07-25T13:38:50;35.50;1.00
6174;DHT22;3120;48.796;9.796;2022-07-25T13:41:16;35.30;1.00
6174;DHT22;3120;48.796;9.796;2022-07-25T13:43:41;35.10;1.00
6174;DHT22;3120;48.796;9.796;2022-07-25T13:46:08;34.90;1.00
6174;DHT22;3120;48.796;9.796;2022-07-25T13:48:34;34.60;1.00
6174;DHT22;3120;48.796;9.796;2022-07-25T13:50:59;34.60;1.00
6174;DHT22;3120;48.796;9.796;2022-07-25T13:53:25;34.60;1.00
6174;DHT22;3120;48.796;9.796;2022-07-25T13:55:51;34.60;1.00
6174;DHT22;3120;48.796;9.796;2022-07-25T13:58:17;34.50;1.00
6174;DHT22;3120;48.796;9.796;2022-07-25T14:00:43;34.30;1.00
6174;DHT22;3120;48.796;9.796;2022-07-25T14:03:09;34.30;1.00
6174;DHT22;3120;48.796;9.796;2022-07-25T14:05:36;34.30;1.00
6174;DHT22;3120;48.796;9.796;2022-07-25T14:08:02;34.40;1.00
6174;DHT22;3120;48.796;9.796;2022-07-25T14:10:28;34.50;1.00
6174;DHT22;3120;48.796;9.796;2022-07-25T14:12:53;34.70;1.00
6174;DHT22;3120;48.796;9.796;2022-07-25T14:15:19;34.80;1.00
6174;DHT22;3120;48.796;9.796;2022-07-25T14:17:45;34.90;1.00
6174;DHT22;3120;48.796;9.796;2022-07-25T14:20:11;34.90;1.00
6174;DHT22;3120;48.796;9.796;2022-07-25T14:22:38;34.80;1.00
6174;DHT22;3120;48.796;9.796;2022-07-25T14:25:04;34.60;1.00
6174;DHT22;3120;48.796;9.796;2022-07-25T14:27:30;34.30;1.00
6174;DHT22;3120;48.796;9.796;2022-07-25T14:29:56;34.20;1.00
6174;DHT22;3120;48.796;9.796;2022-07-25T14:34:49;33.80;1.00
6174;DHT22;3120;48.796;9.796;2022-07-25T14:37:17;33.70;1.00
6174;DHT22;3120;48.796;9.796;2022-07-25T14:39:43;33.60;1.00
6174;DHT22;3120;48.796;9.796;2022-07-25T14:42:09;33.50;1.00
6174;DHT22;3120;48.796;9.796;2022-07-25T14:44:36;33.50;1.00
6174;DHT22;3120;48.796;9.796;2022-07-25T14:47:02;33.40;1.00
6174;DHT22;3120;48.796;9.796;2022-07-25T14:49:28;33.30;1.00
6174;DHT22;3120;48.796;9.796;2022-07-25T14:51:54;33.20;1.00
6174;DHT22;3120;48.796;9.796;2022-07-25T14:54:19;33.20;1.00
6174;DHT22;3120;48.796;9.796;2022-07-25T14:56:45;33.10;1.00
6174;DHT22;3120;48.796;9.796;2022-07-25T14:59:10;33.00;1.00
6174;DHT22;3120;48.796;9.796;2022-07-25T15:01:37;32.80;1.00
6174;DHT22;3120;48.796;9.796;2022-07-25T15:04:04;32.80;1.00
6174;DHT22;3120;48.796;9.796;2022-07-25T15:06:30;32.80;1.00
6174;DHT22;3120;48.796;9.796;2022-07-25T15:08:56;32.80;1.00
6174;DHT22;3120;48.796;9.796;2022-07-25T15:11:22;32.00;1.00
6174;DHT22;3120;48.796;9.796;2022-07-25T15:13:48;28.50;99.90
6174;DHT22;3120;48.796;9.796;2022-07-25T15:16:15;26.40;1.00
6174;DHT22;3120;48.796;9.796;2022-07-25T15:18:42;25.50;1.00
6174;DHT22;3120;48.796;9.796;2022-07-25T15:21:10;24.40;13.60
6174;DHT22;3120;48.796;9.796;2022-07-25T15:23:36;24.10;1.00
6174;DHT22;3120;48.796;9.796;2022-07-25T15:26:02;24.00;21.30
6174;DHT22;3120;48.796;9.796;2022-07-25T15:28:27;24.00;13.60
6174;DHT22;3120;48.796;9.796;2022-07-25T15:30:53;24.10;38.20
6174;DHT22;3120;48.796;9.796;2022-07-25T15:33:20;24.30;99.90
6174;DHT22;3120;48.796;9.796;2022-07-25T15:35:46;24.40;99.90
6174;DHT22;3120;48.796;9.796;2022-07-25T15:38:16;24.60;99.90
6174;DHT22;3120;48.796;9.796;2022-07-25T15:40:42;24.80;99.90
6174;DHT22;3120;48.796;9.796;2022-07-25T15:43:08;24.80;99.90
6174;DHT22;3120;48.796;9.796;2022-07-25T15:45:37;25.00;99.90
6174;DHT22;3120;48.796;9.796;2022-07-25T15:48:08;25.10;99.90
6174;DHT22;3120;48.796;9.796;2022-07-25T15:50:39;25.40;99.90
6174;DHT22;3120;48.796;9.796;2022-07-25T15:53:05;25.60;53.60
6174;DHT22;3120;48.796;9.796;2022-07-25T17:09:58;26.40;1.00
6174;DHT22;3120;48.796;9.796;2022-07-25T17:12:23;26.50;1.00
6174;DHT22;3120;48.796;9.796;2022-07-25T17:14:49;26.60;35.80
6174;DHT22;3120;48.796;9.796;2022-07-25T17:17:14;26.50;39.80
6174;DHT22;3120;48.796;9.796;2022-07-25T17:19:40;26.50;74.60
6174;DHT22;3120;48.796;9.796;2022-07-25T17:22:06;26.40;87.40
6174;DHT22;3120;48.796;9.796;2022-07-25T17:24:32;26.30;99.90
6174;DHT22;3120;48.796;9.796;2022-07-25T17:26:59;26.30;99.90
6174;DHT22;3120;48.796;9.796;2022-07-25T17:29:25;26.20;99.90
6174;DHT22;3120;48.796;9.796;2022-07-25T17:31:51;26.10;99.90
6174;DHT22;3120;48.796;9.796;2022-07-25T17:34:16;26.10;99.90
6174;DHT22;3120;48.796;9.796;2022-07-25T17:36:43;26.00;99.90
6174;DHT22;3120;48.796;9.796;2022-07-25T17:39:09;25.90;99.90